createdAt,value
2022-11-13T00:01:20.923Z,99.90
2022-11-13T00:03:48.548Z,99.90
2022-11-13T00:06:17.085Z,99.90
2022-11-13T00:08:44.760Z,99.90
2022-11-13T00:11:18.617Z,99.90
2022-11-13T00:13:47.013Z,99.90
2022-11-13T00:16:17.944Z,99.90
2022-11-13T00:18:45.628Z,99.90
2022-11-13T00:21:24.697Z,99.90
2022-11-13T00:23:52.401Z,99.90
2022-11-13T00:26:24.186Z,99.90
2022-11-13T00:29:00.517Z,99.90
2022-11-13T00:31:28.867Z,99.90
2022-11-13T00:36:45.134Z,99.90
2022-11-13T00:39:12.136Z,99.90
2022-11-13T00:41:39.457Z,99.90
2022-11-13T00:44:06.944Z,99.90
2022-11-13T00:46:33.935Z,99.90
2022-11-13T00:49:01.041Z,99.90
2022-11-13T00:51:28.092Z,99.90
2022-11-13T00:53:55.125Z,99.90
2022-11-13T00:56:22.694Z,99.90
2022-11-13T00:58:49.785Z,99.90
2022-11-13T01:01:19.896Z,99.90
2022-11-13T01:03:47.104Z,99.90
2022-11-13T01:06:24.772Z,99.90
2022-11-13T01:08:55.740Z,99.90
2022-11-13T01:11:27.804Z,99.90
2022-11-13T01:13:56.316Z,99.90
2022-11-13T01:16:26.542Z,99.90
2022-11-13T01:18:58.809Z,99.90
2022-11-13T01:21:27.755Z,99.90
2022-11-13T01:23:56.443Z,99.90
2022-11-13T01:26:30.297Z,99.90
2022-11-13T01:28:59.313Z,99.90
2022-11-13T01:31:30.345Z,99.90
2022-11-13T01:33:57.958Z,99.90
2022-11-13T01:36:28.283Z,99.90
2022-11-13T01:38:56.129Z,99.90
2022-11-13T01:41:32.779Z,99.90
2022-11-13T01:44:01.383Z,99.90
2022-11-13T01:46:34.344Z,99.90
2022-11-13T01:49:10.389Z,99.90
2022-11-13T01:51:57.926Z,99.90
2022-11-13T01:54:30.457Z,99.90
2022-11-13T01:56:58.457Z,99.90
2022-11-13T01:59:31.826Z,99.90
2022-11-13T02:01:59.085Z,99.90
2022-11-13T02:04:27.876Z,99.90
2022-11-13T02:07:00.194Z,99.90
2022-11-13T02:09:36.228Z,99.90
2022-11-13T02:12:06.358Z,99.90
2022-11-13T02:14:34.695Z,99.90
2022-11-13T02:17:07.225Z,99.90
2022-11-13T02:19:42.383Z,99.90
2022-11-13T02:22:31.119Z,99.90
2022-11-13T02:25:00.716Z,99.90
2022-11-13T02:27:50.526Z,99.90
2022-11-13T02:30:29.036Z,99.90
2022-11-13T02:32:58.739Z,99.90
2022-11-13T02:35:30.561Z,99.90
2022-11-13T02:38:01.166Z,99.90
2022-11-13T02:40:29.904Z,99.90
2022-11-13T02:42:56.945Z,99.90
2022-11-13T02:45:24.265Z,99.90
2022-11-13T02:47:51.655Z,99.90
2022-11-13T02:50:19.112Z,99.90
2022-11-13T02:52:46.208Z,99.90
2022-11-13T02:55:14.225Z,99.90
2022-11-13T02:57:41.223Z,99.90
2022-11-13T03:00:13.738Z,99.90
2022-11-13T03:02:41.355Z,99.90
2022-11-13T03:05:12.518Z,99.90
2022-11-13T03:07:41.499Z,99.90
2022-11-13T03:10:11.692Z,99.90
2022-11-13T03:12:40.696Z,99.90
2022-11-13T03:15:08.971Z,99.90
2022-11-13T03:17:36.130Z,99.90
2022-11-13T03:20:04.481Z,99.90
2022-11-13T03:22:31.554Z,99.90
2022-11-13T03:24:58.732Z,99.90
2022-11-13T03:27:25.732Z,99.90
2022-11-13T03:29:52.716Z,99.90
2022-11-13T03:32:19.808Z,99.90
2022-11-13T03:34:46.811Z,99.90
2022-11-13T03:37:13.843Z,99.90
2022-11-13T03:39:40.923Z,99.90
2022-11-13T03:42:07.983Z,99.90
2022-11-13T03:44:34.987Z,99.90
2022-11-13T03:47:02.025Z,99.90
2022-11-13T03:49:29.060Z,99.90
2022-11-13T03:51:56.029Z,99.90
2022-11-13T03:54:23.101Z,99.90
2022-11-13T03:56:50.097Z,99.90
2022-11-13T03:59:17.092Z,99.90
2022-11-13T04:01:44.158Z,99.90
2022-11-13T04:04:11.389Z,99.90
2022-11-13T04:06:38.518Z,99.90
2022-11-13T04:09:05.737Z,99.90
2022-11-13T04:11:32.865Z,99.90
2022-11-13T04:14:00.327Z,99.90
2022-11-13T04:16:27.425Z,99.90
2022-11-13T04:18:55.001Z,99.90
2022-11-13T04:21:21.978Z,99.90
2022-11-13T04:23:49.122Z,99.90
2022-11-13T04:26:16.144Z,99.90
2022-11-13T04:28:43.133Z,99.90
2022-11-13T04:31:10.180Z,99.90
2022-11-13T04:33:37.210Z,99.90
2022-11-13T04:36:04.599Z,99.90
2022-11-13T04:38:31.866Z,99.90
2022-11-13T04:41:17.634Z,99.90
2022-11-13T04:43:44.684Z,99.90
2022-11-13T04:46:11.686Z,99.90
2022-11-13T04:48:38.960Z,99.90
2022-11-13T04:51:06.305Z,99.90
2022-11-13T04:53:34.715Z,99.90
2022-11-13T04:56:01.705Z,99.90
2022-11-13T04:58:29.111Z,99.90
2022-11-13T05:00:56.371Z,99.90
2022-11-13T05:03:23.353Z,99.90
2022-11-13T05:05:50.385Z,99.90
2022-11-13T05:08:17.374Z,99.90
2022-11-13T05:10:44.476Z,99.90
2022-11-13T05:13:11.599Z,99.90
2022-11-13T05:15:38.576Z,99.90
2022-11-13T05:18:05.613Z,99.90
2022-11-13T05:20:32.733Z,99.90
2022-11-13T05:22:59.766Z,99.90
2022-11-13T05:25:26.790Z,99.90
2022-11-13T05:27:54.060Z,99.90
2022-11-13T05:30:21.114Z,99.90
2022-11-13T05:32:48.088Z,99.90
2022-11-13T05:35:16.624Z,99.90
2022-11-13T05:37:43.658Z,99.90
2022-11-13T05:40:11.787Z,99.90
2022-11-13T05:42:38.830Z,99.90
2022-11-13T05:45:06.447Z,99.90
2022-11-13T05:47:33.680Z,99.90
2022-11-13T05:50:00.749Z,99.90
2022-11-13T05:52:27.844Z,99.90
2022-11-13T05:54:54.844Z,99.90
2022-11-13T05:57:21.884Z,99.90
2022-11-13T05:59:48.965Z,99.90
2022-11-13T06:02:16.089Z,99.90
2022-11-13T06:04:43.201Z,99.90
2022-11-13T06:07:10.257Z,99.90
2022-11-13T06:09:37.281Z,99.90
2022-11-13T06:12:04.706Z,99.90
2022-11-13T06:14:31.800Z,99.90
2022-11-13T06:16:58.785Z,99.90
2022-11-13T06:19:25.922Z,99.90
2022-11-13T06:21:52.912Z,99.90
2022-11-13T06:24:20.018Z,99.90
2022-11-13T06:26:47.084Z,99.90
2022-11-13T06:29:14.127Z,99.90
2022-11-13T06:31:41.245Z,99.90
2022-11-13T06:34:10.501Z,99.90
2022-11-13T06:36:38.338Z,99.90
2022-11-13T06:39:10.542Z,99.90
2022-11-13T06:41:39.675Z,99.90
2022-11-13T06:44:06.997Z,99.90
2022-11-13T06:46:34.451Z,99.90
2022-11-13T06:49:02.198Z,99.90
2022-11-13T06:51:30.989Z,99.90
2022-11-13T06:53:58.666Z,99.90
2022-11-13T06:56:26.575Z,99.90
2022-11-13T06:58:55.814Z,99.90
2022-11-13T07:01:25.989Z,99.90
2022-11-13T07:03:53.492Z,99.90
2022-11-13T07:06:23.630Z,99.90
2022-11-13T07:08:50.957Z,99.90
2022-11-13T07:11:21.647Z,99.90
2022-11-13T07:13:49.541Z,99.90
2022-11-13T07:16:18.239Z,99.90
2022-11-13T07:18:51.940Z,99.90
2022-11-13T07:21:20.284Z,99.90
2022-11-13T07:23:51.381Z,99.90
2022-11-13T07:26:19.357Z,99.90
2022-11-13T07:28:47.489Z,99.90
2022-11-13T07:31:17.343Z,99.90
2022-11-13T07:33:44.929Z,99.90
2022-11-13T07:36:12.208Z,99.90
2022-11-13T07:38:39.256Z,99.90
2022-11-13T07:41:06.721Z,99.90
2022-11-13T07:43:34.661Z,99.90
2022-11-13T07:46:02.193Z,99.90
2022-11-13T07:48:29.671Z,99.90
2022-11-13T07:51:01.729Z,99.90
2022-11-13T07:53:28.796Z,99.90
2022-11-13T07:55:55.822Z,99.90
2022-11-13T07:58:22.849Z,99.90
2022-11-13T08:00:49.904Z,99.90
2022-11-13T08:03:18.093Z,99.90
2022-11-13T08:05:45.451Z,99.90
2022-11-13T08:08:14.951Z,99.90
2022-11-13T08:10:42.805Z,99.90
2022-11-13T08:13:12.477Z,99.90
2022-11-13T08:15:39.583Z,99.90
2022-11-13T08:18:07.300Z,99.90
2022-11-13T08:20:34.738Z,99.90
2022-11-13T08:23:04.398Z,99.90
2022-11-13T08:25:33.068Z,99.90
2022-11-13T08:28:00.793Z,99.90
2022-11-13T08:30:29.100Z,99.90
2022-11-13T08:32:56.112Z,99.90
2022-11-13T08:35:28.976Z,99.90
2022-11-13T08:38:03.174Z,99.90
2022-11-13T08:40:30.494Z,99.90
2022-11-13T08:43:04.949Z,99.90
2022-11-13T08:45:33.179Z,99.90
2022-11-13T08:48:01.927Z,99.90
2022-11-13T08:50:30.807Z,99.90
2022-11-13T08:53:00.006Z,99.90
2022-11-13T08:55:28.205Z,99.90
2022-11-13T08:58:00.144Z,99.90
2022-11-13T09:00:28.969Z,99.90
2022-11-13T09:02:57.585Z,99.90
2022-11-13T09:05:25.503Z,99.90
2022-11-13T09:08:00.009Z,99.90
2022-11-13T09:10:28.481Z,99.90
2022-11-13T09:13:04.968Z,99.90
2022-11-13T09:15:32.897Z,99.90
2022-11-13T09:18:02.233Z,99.90
2022-11-13T09:20:30.891Z,99.90
2022-11-13T09:23:04.910Z,99.90
2022-11-13T09:25:37.509Z,99.90
2022-11-13T09:28:06.747Z,99.90
2022-11-13T09:30:34.057Z,99.90
2022-11-13T09:33:02.066Z,99.90
2022-11-13T09:35:34.073Z,99.90
2022-11-13T09:38:11.106Z,99.90
2022-11-13T09:40:50.347Z,99.90
2022-11-13T09:44:15.145Z,99.90
2022-11-13T09:46:56.514Z,99.90
2022-11-13T09:49:32.045Z,99.90
2022-11-13T09:52:37.980Z,99.90
2022-11-13T09:55:05.930Z,99.90
2022-11-13T09:57:49.374Z,99.90
2022-11-13T10:00:19.706Z,99.90
2022-11-13T10:03:39.127Z,99.90
2022-11-13T10:07:29.462Z,99.90
2022-11-13T10:10:04.977Z,99.90
2022-11-13T10:12:33.935Z,99.90
2022-11-13T10:15:04.892Z,99.90
2022-11-13T10:17:44.145Z,99.90
2022-11-13T10:20:18.891Z,99.90
2022-11-13T10:22:57.205Z,99.90
2022-11-13T10:25:29.393Z,99.90
2022-11-13T10:28:04.561Z,99.90
2022-11-13T10:30:43.278Z,99.90
2022-11-13T10:33:18.034Z,99.90
2022-11-13T10:36:39.366Z,99.90
2022-11-13T10:39:08.821Z,99.90
2022-11-13T10:41:51.252Z,99.90
2022-11-13T10:44:34.241Z,99.90
2022-11-13T10:47:49.186Z,99.90
2022-11-13T10:50:22.274Z,99.90
2022-11-13T10:52:52.336Z,99.90
2022-11-13T10:55:31.183Z,99.90
2022-11-13T10:58:01.498Z,99.90
2022-11-13T11:00:38.854Z,99.90
2022-11-13T11:03:17.254Z,99.90
2022-11-13T11:06:00.622Z,99.90
2022-11-13T11:08:36.164Z,99.90
2022-11-13T11:11:35.643Z,99.90
2022-11-13T11:14:18.686Z,99.90
2022-11-13T11:16:47.658Z,99.90
2022-11-13T11:19:16.555Z,99.90
2022-11-13T11:21:44.245Z,99.90
2022-11-13T11:24:17.068Z,99.90
2022-11-13T11:26:47.769Z,99.90
2022-11-13T11:30:04.750Z,99.90
2022-11-13T11:32:41.173Z,99.90
2022-11-13T11:35:16.346Z,99.90
2022-11-13T11:38:12.553Z,99.90
2022-11-13T11:41:03.462Z,99.90
2022-11-13T11:43:41.676Z,99.90
2022-11-13T11:46:23.356Z,99.90
2022-11-13T11:48:51.228Z,99.90
2022-11-13T11:51:36.065Z,99.90
2022-11-13T11:54:22.419Z,99.90
2022-11-13T11:56:56.149Z,99.90
2022-11-13T11:59:32.106Z,99.90
2022-11-13T12:02:29.913Z,99.90
2022-11-13T12:05:25.154Z,99.90
2022-11-13T12:08:30.293Z,99.90
2022-11-13T12:11:22.262Z,99.90
2022-11-13T12:14:21.133Z,99.90
2022-11-13T12:17:44.925Z,99.90
2022-11-13T12:20:38.495Z,99.90
2022-11-13T12:23:36.363Z,99.90
2022-11-13T12:26:18.307Z,99.90
2022-11-13T12:29:19.564Z,96.60
2022-11-13T12:32:02.938Z,97.80
2022-11-13T12:34:48.855Z,98.80
2022-11-13T12:37:50.951Z,97.60
2022-11-13T12:40:33.302Z,96.10
2022-11-13T12:43:12.626Z,91.60
2022-11-13T12:45:39.620Z,92.10
2022-11-13T12:48:34.909Z,92.10
2022-11-13T12:51:08.093Z,90.00
2022-11-13T12:53:53.616Z,90.90
2022-11-13T12:56:27.801Z,90.10
2022-11-13T12:59:29.841Z,85.80
2022-11-13T13:02:08.791Z,88.90
2022-11-13T13:05:10.904Z,85.60
2022-11-13T13:08:05.578Z,87.30
2022-11-13T13:10:44.885Z,88.70
2022-11-13T13:13:47.661Z,87.60
2022-11-13T13:16:27.329Z,88.70
2022-11-13T13:19:23.581Z,89.20
2022-11-13T13:21:50.774Z,89.40
2022-11-13T13:24:38.360Z,90.70
2022-11-13T13:27:30.043Z,91.10
2022-11-13T13:29:59.129Z,91.90
2022-11-13T13:32:34.418Z,91.70
2022-11-13T13:35:34.478Z,92.60
2022-11-13T13:38:19.045Z,93.30
2022-11-13T13:41:20.222Z,93.80
2022-11-13T13:44:08.348Z,93.50
2022-11-13T13:46:35.592Z,93.90
2022-11-13T13:49:11.530Z,94.50
2022-11-13T13:51:43.938Z,95.50
2022-11-13T13:54:22.735Z,94.50
2022-11-13T13:56:50.171Z,96.00
2022-11-13T13:59:29.378Z,96.40
2022-11-13T14:02:02.968Z,96.60
2022-11-13T14:04:35.237Z,97.00
2022-11-13T14:07:03.285Z,95.80
2022-11-13T14:09:31.328Z,97.00
2022-11-13T14:12:09.289Z,96.90
2022-11-13T14:14:40.022Z,97.30
2022-11-13T14:17:09.668Z,99.00
2022-11-13T14:19:37.173Z,99.90
2022-11-13T14:22:06.606Z,99.80
2022-11-13T14:24:38.073Z,99.70
2022-11-13T14:27:13.203Z,99.90
2022-11-13T14:29:48.468Z,99.90
2022-11-13T14:32:44.229Z,99.90
2022-11-13T14:35:25.256Z,99.90
2022-11-13T14:37:55.126Z,99.90
2022-11-13T14:40:30.500Z,99.90
2022-11-13T14:43:05.165Z,99.90
2022-11-13T14:45:33.894Z,99.90
2022-11-13T14:48:02.591Z,99.90
2022-11-13T14:50:37.293Z,99.90
2022-11-13T14:53:12.914Z,99.90
2022-11-13T14:55:53.674Z,99.90
2022-11-13T14:58:32.813Z,99.90
2022-11-13T15:01:12.801Z,99.90
2022-11-13T15:03:39.878Z,99.90
2022-11-13T15:06:25.073Z,99.90
2022-11-13T15:08:56.482Z,99.90
2022-11-13T15:11:26.697Z,99.90
2022-11-13T15:13:53.762Z,99.90
2022-11-13T15:16:29.243Z,99.90
2022-11-13T15:19:18.581Z,99.90
2022-11-13T15:22:05.585Z,99.90
2022-11-13T15:24:34.074Z,99.90
2022-11-13T15:27:03.542Z,99.90
2022-11-13T15:29:30.581Z,99.90
2022-11-13T15:31:58.396Z,99.90
2022-11-13T15:34:25.441Z,99.90
2022-11-13T15:36:52.439Z,99.90
2022-11-13T15:39:23.878Z,99.90
2022-11-13T15:41:52.215Z,99.90
2022-11-13T15:44:19.850Z,99.90
2022-11-13T15:46:50.478Z,99.90
2022-11-13T15:49:17.700Z,99.90
2022-11-13T15:51:49.930Z,99.90
2022-11-13T15:54:25.237Z,99.90
2022-11-13T15:56:52.263Z,99.90
2022-11-13T15:59:21.086Z,99.90
2022-11-13T16:01:49.423Z,99.90
2022-11-13T16:04:18.593Z,99.90
2022-11-13T16:06:47.424Z,99.90
2022-11-13T16:09:15.761Z,99.90
2022-11-13T16:11:43.620Z,99.90
2022-11-13T16:14:10.667Z,99.90
2022-11-13T16:16:41.209Z,99.90
2022-11-13T16:19:22.886Z,99.90
2022-11-13T16:21:50.227Z,99.90
2022-11-13T16:24:21.081Z,99.90
2022-11-13T16:26:58.649Z,99.90
2022-11-13T16:29:29.486Z,99.90
2022-11-13T16:31:56.637Z,99.90
2022-11-13T16:34:23.731Z,99.90
2022-11-13T16:36:51.832Z,99.90
2022-11-13T16:39:19.185Z,99.90
2022-11-13T16:41:46.575Z,99.90
2022-11-13T16:44:13.608Z,99.90
2022-11-13T16:46:45.542Z,99.90
2022-11-13T16:49:18.962Z,99.90
2022-11-13T16:51:47.040Z,99.90
2022-11-13T16:54:14.377Z,99.90
2022-11-13T16:56:41.565Z,99.90
2022-11-13T16:59:11.680Z,99.90
2022-11-13T17:01:38.999Z,99.90
2022-11-13T17:04:09.950Z,99.90
2022-11-13T17:06:37.372Z,99.90
2022-11-13T17:09:05.182Z,99.90
2022-11-13T17:11:32.996Z,99.90
2022-11-13T17:14:02.041Z,99.90
2022-11-13T17:16:31.215Z,99.90
2022-11-13T17:18:59.901Z,99.90
2022-11-13T17:21:29.361Z,99.90
2022-11-13T17:24:05.316Z,99.90
2022-11-13T17:26:32.630Z,99.90
2022-11-13T17:28:59.971Z,99.90
2022-11-13T17:31:27.058Z,99.90
2022-11-13T17:33:55.778Z,99.90
2022-11-13T17:36:25.708Z,99.90
2022-11-13T17:38:55.289Z,99.90
2022-11-13T17:41:22.427Z,99.90
2022-11-13T17:43:49.488Z,99.90
2022-11-13T17:46:18.482Z,99.90
2022-11-13T17:48:47.561Z,99.90
2022-11-13T17:51:16.194Z,99.90
2022-11-13T17:53:43.874Z,99.90
2022-11-13T17:56:13.442Z,99.90
2022-11-13T17:58:43.456Z,99.90
2022-11-13T18:01:22.249Z,99.90
2022-11-13T18:03:56.323Z,99.90
2022-11-13T18:06:24.480Z,99.90
2022-11-13T18:08:51.576Z,99.90
2022-11-13T18:11:27.997Z,99.90
2022-11-13T18:13:55.019Z,99.90
2022-11-13T18:16:30.770Z,99.90
2022-11-13T18:18:59.967Z,99.90
2022-11-13T18:21:36.488Z,99.90
2022-11-13T18:24:13.081Z,99.90
2022-11-13T18:26:41.094Z,99.90
2022-11-13T18:29:09.781Z,99.90
2022-11-13T18:31:37.394Z,99.90
2022-11-13T18:34:07.781Z,99.90
2022-11-13T18:36:35.902Z,99.90
2022-11-13T18:39:03.468Z,99.90
2022-11-13T18:41:32.617Z,99.90
2022-11-13T18:43:59.646Z,99.90
2022-11-13T18:46:26.780Z,99.90
2022-11-13T18:48:56.782Z,99.90
2022-11-13T18:51:27.745Z,99.90
2022-11-13T18:53:56.536Z,99.90
2022-11-13T18:56:30.104Z,99.90
2022-11-13T18:58:59.337Z,99.90
2022-11-13T19:01:35.089Z,99.90
2022-11-13T19:04:22.479Z,99.90
2022-11-13T19:06:51.225Z,99.90
2022-11-13T19:09:19.122Z,99.90
2022-11-13T19:11:46.435Z,99.90
2022-11-13T19:14:15.883Z,99.90
2022-11-13T19:16:43.321Z,99.90
2022-11-13T19:19:22.917Z,99.90
2022-11-13T19:21:50.686Z,99.90
2022-11-13T19:24:18.201Z,99.90
2022-11-13T19:26:46.044Z,99.90
2022-11-13T19:29:14.086Z,99.90
2022-11-13T19:31:41.234Z,99.90
2022-11-13T19:34:08.787Z,99.90
2022-11-13T19:36:36.658Z,99.90
2022-11-13T19:39:04.925Z,99.90
2022-11-13T19:41:32.277Z,99.90
2022-11-13T19:44:00.348Z,99.90
2022-11-13T19:46:28.700Z,99.90
2022-11-13T19:48:57.026Z,99.90
2022-11-13T19:51:26.609Z,99.90
2022-11-13T19:53:58.846Z,99.90
2022-11-13T19:56:28.561Z,99.90
2022-11-13T19:58:56.447Z,99.90
2022-11-13T20:01:26.819Z,99.90
2022-11-13T20:04:01.020Z,99.90
2022-11-13T20:06:30.465Z,99.90
2022-11-13T20:09:00.712Z,99.90
2022-11-13T20:11:28.284Z,99.90
2022-11-13T20:13:57.043Z,99.90
2022-11-13T20:16:26.098Z,99.90
2022-11-13T20:18:58.226Z,99.90
2022-11-13T20:21:27.301Z,99.90
2022-11-13T20:23:57.516Z,99.90
2022-11-13T20:26:25.472Z,99.90
2022-11-13T20:28:52.565Z,99.90
2022-11-13T20:31:23.336Z,99.90
2022-11-13T20:33:52.613Z,99.90
2022-11-13T20:36:20.270Z,99.90
2022-11-13T20:38:54.107Z,99.90
2022-11-13T20:41:27.061Z,99.90
2022-11-13T20:43:56.417Z,99.90
2022-11-13T20:46:23.823Z,99.90
2022-11-13T20:48:50.831Z,99.90
2022-11-13T20:51:21.806Z,99.90
2022-11-13T20:53:49.622Z,99.90
2022-11-13T20:56:18.076Z,99.90
2022-11-13T20:58:46.109Z,99.90
2022-11-13T21:01:16.865Z,99.90
2022-11-13T21:03:46.001Z,99.90
2022-11-13T21:06:16.727Z,99.90
2022-11-13T21:08:44.181Z,99.90
2022-11-13T21:11:27.182Z,99.90
2022-11-13T21:13:55.587Z,99.90
2022-11-13T21:16:24.752Z,99.90
2022-11-13T21:18:52.091Z,99.90
2022-11-13T21:21:21.894Z,99.90
2022-11-13T21:23:49.424Z,99.90
2022-11-13T21:26:16.819Z,99.90
2022-11-13T21:28:44.269Z,99.90
2022-11-13T21:31:20.638Z,99.90
2022-11-13T21:33:49.419Z,99.90
2022-11-13T21:36:19.878Z,99.90
2022-11-13T21:38:50.083Z,99.90
2022-11-13T21:41:23.071Z,99.90
2022-11-13T21:44:03.303Z,99.90
2022-11-13T21:46:33.782Z,99.90
2022-11-13T21:49:09.541Z,99.90
2022-11-13T21:51:38.642Z,99.90
2022-11-13T21:54:06.594Z,99.90
2022-11-13T21:56:36.823Z,99.90
2022-11-13T21:59:05.383Z,99.90
2022-11-13T22:01:38.154Z,99.90
2022-11-13T22:04:06.493Z,99.90
2022-11-13T22:06:36.451Z,99.90
2022-11-13T22:09:25.293Z,99.90
2022-11-13T22:11:53.020Z,99.90
2022-11-13T22:14:20.058Z,99.90
2022-11-13T22:16:49.325Z,99.90
2022-11-13T22:19:25.235Z,99.90
2022-11-13T22:21:54.423Z,99.90
2022-11-13T22:24:21.513Z,99.90
2022-11-13T22:26:48.816Z,99.90
2022-11-13T22:29:15.990Z,99.90
2022-11-13T22:31:44.959Z,99.90
2022-11-13T22:34:12.228Z,99.90
2022-11-13T22:36:39.484Z,99.90
2022-11-13T22:39:06.899Z,99.90
2022-11-13T22:41:35.879Z,99.90
2022-11-13T22:44:09.946Z,99.90
2022-11-13T22:46:37.187Z,99.90
2022-11-13T22:49:06.124Z,99.90
2022-11-13T22:51:38.296Z,99.90
2022-11-13T22:54:12.218Z,99.90
2022-11-13T22:56:41.310Z,99.90
2022-11-13T22:59:11.563Z,99.90
2022-11-13T23:01:40.499Z,99.90
2022-11-13T23:04:12.122Z,99.90
2022-11-13T23:06:39.219Z,99.90
2022-11-13T23:09:06.802Z,99.90
2022-11-13T23:11:39.763Z,99.90
2022-11-13T23:14:11.815Z,99.90
2022-11-13T23:16:39.797Z,99.90
2022-11-13T23:19:07.265Z,99.90
2022-11-13T23:21:34.309Z,99.90
2022-11-13T23:24:03.237Z,99.90
2022-11-13T23:26:30.755Z,99.90
2022-11-13T23:28:58.070Z,99.90
2022-11-13T23:31:25.232Z,99.90
2022-11-13T23:33:52.228Z,99.90
2022-11-13T23:36:20.493Z,99.90
2022-11-13T23:38:47.718Z,99.90
2022-11-13T23:41:14.785Z,99.90
2022-11-13T23:46:28.846Z,99.90
2022-11-13T23:48:55.949Z,99.90
2022-11-13T23:51:23.014Z,99.90
2022-11-13T23:53:50.052Z,99.90
2022-11-13T23:56:17.032Z,99.90
2022-11-13T23:58:44.629Z,99.90
